createdAt,value
2019-04-28T00:02:23.014Z,98617.88
2019-04-28T00:04:51.529Z,98612.23
2019-04-28T00:07:21.570Z,98619.45
2019-04-28T00:09:51.119Z,98622.31
2019-04-28T00:12:21.373Z,98629.16
2019-04-28T00:14:51.634Z,98625.41
2019-04-28T00:17:21.082Z,98634.18
2019-04-28T00:19:51.474Z,98632.03
2019-04-28T00:22:27.791Z,98633.06
2019-04-28T00:25:01.568Z,98627.34
2019-04-28T00:27:31.624Z,98627.36
2019-04-28T00:30:01.966Z,98631.99
2019-04-28T00:32:32.367Z,98641.27
2019-04-28T00:35:02.312Z,98642.58
2019-04-28T00:37:32.219Z,98636.20
2019-04-28T00:40:01.086Z,98637.92
2019-04-28T00:42:31.446Z,98637.67
2019-04-28T00:45:01.667Z,98630.97
2019-04-28T00:47:31.139Z,98633.55
2019-04-28T00:50:01.947Z,98631.37
2019-04-28T00:52:31.836Z,98632.30
2019-04-28T00:55:01.200Z,98635.70
2019-04-28T00:57:30.943Z,98639.94
2019-04-28T01:00:02.171Z,98639.77
2019-04-28T01:02:34.270Z,98641.93
2019-04-28T01:05:02.760Z,98636.33
2019-04-28T01:07:32.972Z,98642.38
2019-04-28T01:10:01.882Z,98645.70
2019-04-28T01:12:31.118Z,98638.81
2019-04-28T01:15:04.024Z,98647.89
2019-04-28T01:17:31.705Z,98648.08
2019-04-28T01:20:09.734Z,98650.81
2019-04-28T01:22:40.045Z,98648.77
2019-04-28T01:25:08.347Z,98651.02
2019-04-28T01:27:40.179Z,98659.66
2019-04-28T01:30:11.306Z,98663.20
2019-04-28T01:32:47.239Z,98658.98
2019-04-28T01:35:15.916Z,98660.98
2019-04-28T01:37:44.385Z,98659.25
2019-04-28T01:40:13.116Z,98660.92
2019-04-28T01:42:41.589Z,98666.34
2019-04-28T01:45:10.604Z,98673.47
2019-04-28T01:47:40.449Z,98672.03
2019-04-28T01:50:10.229Z,98667.98
2019-04-28T01:52:39.926Z,98673.58
2019-04-28T01:55:10.148Z,98665.77
2019-04-28T01:57:39.963Z,98674.34
2019-04-28T02:00:22.159Z,98677.69
2019-04-28T02:02:42.166Z,98685.47
2019-04-28T02:05:10.735Z,98684.05
2019-04-28T02:07:40.736Z,98689.09
2019-04-28T02:10:10.291Z,98687.16
2019-04-28T02:12:40.313Z,98687.33
2019-04-28T02:15:10.490Z,98689.17
2019-04-28T02:17:40.190Z,98690.23
2019-04-28T02:20:10.414Z,98681.80
2019-04-28T02:22:43.402Z,98683.65
2019-04-28T02:25:12.078Z,98691.59
2019-04-28T02:27:40.608Z,98693.02
2019-04-28T02:30:11.346Z,98690.11
2019-04-28T02:32:40.974Z,98687.95
2019-04-28T02:35:10.768Z,98693.88
2019-04-28T02:37:40.517Z,98696.25
2019-04-28T02:40:10.659Z,98686.22
2019-04-28T02:42:40.900Z,98684.50
2019-04-28T02:45:11.854Z,98688.06
2019-04-28T02:47:41.982Z,98686.35
2019-04-28T02:50:12.641Z,98688.88
2019-04-28T02:52:54.450Z,98694.61
2019-04-28T02:55:23.207Z,98691.75
2019-04-28T02:57:51.947Z,98694.03
2019-04-28T03:00:21.634Z,98698.85
2019-04-28T03:02:51.347Z,98690.52
2019-04-28T03:05:21.545Z,98700.90
2019-04-28T03:07:51.512Z,98708.17
2019-04-28T03:10:21.327Z,98707.32
2019-04-28T03:12:51.674Z,98702.32
2019-04-28T03:15:20.709Z,98714.13
2019-04-28T03:17:52.565Z,98722.27
2019-04-28T03:20:21.011Z,98720.76
2019-04-28T03:22:51.111Z,98722.94
2019-04-28T03:25:24.168Z,98728.45
2019-04-28T03:28:00.713Z,98732.90
2019-04-28T03:30:36.791Z,98729.74
2019-04-28T03:33:13.126Z,98732.94
2019-04-28T03:35:37.157Z,98728.00
2019-04-28T03:38:05.584Z,98740.42
2019-04-28T03:40:34.167Z,98735.41
2019-04-28T03:43:03.336Z,98744.27
2019-04-28T03:45:40.960Z,98748.77
2019-04-28T03:48:11.503Z,98746.97
2019-04-28T03:50:41.404Z,98746.53
2019-04-28T03:53:11.107Z,98735.52
2019-04-28T03:55:41.688Z,98743.49
2019-04-28T03:58:10.618Z,98745.19
2019-04-28T04:00:40.884Z,98751.34
2019-04-28T04:03:10.928Z,98749.52
2019-04-28T04:05:40.618Z,98750.33
2019-04-28T04:08:10.939Z,98755.73
2019-04-28T04:10:44.330Z,98761.94
2019-04-28T04:13:14.462Z,98769.38
2019-04-28T04:15:50.691Z,98764.67
2019-04-28T04:18:25.072Z,98764.70
2019-04-28T04:20:53.543Z,98767.20
2019-04-28T04:23:23.364Z,98765.28
2019-04-28T04:25:52.087Z,98763.44
2019-04-28T04:28:20.843Z,98781.59
2019-04-28T04:30:50.854Z,98792.76
2019-04-28T04:33:20.853Z,98798.59
2019-04-28T04:35:51.775Z,98801.79
2019-04-28T04:38:21.725Z,98812.91
2019-04-28T04:40:51.278Z,98808.85
2019-04-28T04:43:23.047Z,98811.77
2019-04-28T04:45:51.986Z,98815.02
2019-04-28T04:48:21.475Z,98822.49
2019-04-28T04:50:51.012Z,98826.25
2019-04-28T04:53:20.840Z,98826.05
2019-04-28T04:55:50.532Z,98836.52
2019-04-28T04:58:21.424Z,98836.76
2019-04-28T05:00:51.553Z,98845.34
2019-04-28T05:03:24.475Z,98849.59
2019-04-28T05:05:52.945Z,98847.38
2019-04-28T05:08:21.436Z,98846.48
2019-04-28T05:10:50.307Z,98850.58
2019-04-28T05:13:20.109Z,98850.70
2019-04-28T05:15:48.743Z,98849.53
2019-04-28T05:18:17.245Z,98847.61
2019-04-28T05:20:45.787Z,98842.31
2019-04-28T05:23:19.622Z,98840.80
2019-04-28T05:25:49.736Z,98838.06
2019-04-28T05:28:19.749Z,98842.95
2019-04-28T05:30:50.136Z,98849.80
2019-04-28T05:33:30.606Z,98851.55
2019-04-28T05:36:00.987Z,98850.63
2019-04-28T05:38:28.048Z,98853.31
2019-04-28T05:40:56.535Z,98844.50
2019-04-28T05:43:25.034Z,98849.33
2019-04-28T05:45:53.496Z,98850.23
2019-04-28T05:48:23.636Z,98845.75
2019-04-28T05:50:53.738Z,98851.02
2019-04-28T05:53:23.886Z,98854.56
2019-04-28T05:56:00.187Z,98852.30
2019-04-28T05:58:30.325Z,98854.78
2019-04-28T06:01:00.454Z,98848.84
2019-04-28T06:03:30.624Z,98855.22
2019-04-28T06:05:59.999Z,98858.22
2019-04-28T06:08:36.029Z,98857.06
2019-04-28T06:11:22.155Z,98861.33
2019-04-28T06:13:52.554Z,98856.91
2019-04-28T06:16:22.137Z,98862.42
2019-04-28T06:18:50.739Z,98870.93
2019-04-28T06:21:19.204Z,98869.97
2019-04-28T06:23:47.699Z,98874.20
2019-04-28T06:26:16.170Z,98877.45
2019-04-28T06:28:44.664Z,98876.02
2019-04-28T06:31:13.204Z,98880.59
2019-04-28T06:33:44.413Z,98871.78
2019-04-28T06:36:11.903Z,98883.38
2019-04-28T06:38:40.395Z,98879.62
2019-04-28T06:41:08.855Z,98870.20
2019-04-28T06:43:37.355Z,98873.43
2019-04-28T06:46:05.823Z,98876.59
2019-04-28T06:48:34.318Z,98881.52
2019-04-28T06:51:02.812Z,98882.62
2019-04-28T06:53:31.308Z,98885.41
2019-04-28T06:55:59.782Z,98891.19
2019-04-28T06:58:28.271Z,98890.09
2019-04-28T07:00:56.744Z,98900.92
2019-04-28T07:03:25.218Z,98898.86
2019-04-28T07:05:53.721Z,98895.70
2019-04-28T07:08:22.192Z,98898.67
2019-04-28T07:10:50.687Z,98890.98
2019-04-28T07:13:20.641Z,98891.94
2019-04-28T07:15:49.314Z,98901.63
2019-04-28T07:18:17.795Z,98899.00
2019-04-28T07:20:59.814Z,98909.36
2019-04-28T07:23:28.753Z,98913.73
2019-04-28T07:25:57.494Z,98908.73
2019-04-28T07:28:25.961Z,98921.79
2019-04-28T07:30:54.592Z,98915.09
2019-04-28T07:33:35.261Z,98915.30
2019-04-28T07:35:53.371Z,98919.45
2019-04-28T07:38:21.827Z,98933.63
2019-04-28T07:40:50.323Z,98927.67
2019-04-28T07:43:18.804Z,98918.87
2019-04-28T07:45:47.303Z,98932.44
2019-04-28T07:48:15.780Z,98928.52
2019-04-28T07:50:44.281Z,98934.44
2019-04-28T07:53:14.389Z,98932.31
2019-04-28T07:55:42.936Z,98933.22
2019-04-28T07:58:11.439Z,98937.69
2019-04-28T08:00:40.024Z,98948.49
2019-04-28T08:03:08.564Z,98941.41
2019-04-28T08:05:37.060Z,98945.05
2019-04-28T08:08:05.540Z,98942.55
2019-04-28T08:10:34.043Z,98934.44
2019-04-28T08:13:02.525Z,98930.27
2019-04-28T08:15:31.024Z,98940.45
2019-04-28T08:17:59.500Z,98939.63
2019-04-28T08:20:28.000Z,98947.37
2019-04-28T08:22:56.467Z,98946.77
2019-04-28T08:25:25.034Z,98957.15
2019-04-28T08:27:53.511Z,98959.66
2019-04-28T08:30:22.085Z,98958.19
2019-04-28T08:32:52.195Z,98964.86
2019-04-28T08:35:20.692Z,98963.80
2019-04-28T08:37:49.161Z,98959.53
2019-04-28T08:40:17.669Z,98982.73
2019-04-28T08:42:46.145Z,98975.67
2019-04-28T08:45:14.954Z,98982.71
2019-04-28T08:47:43.449Z,98979.47
2019-04-28T08:50:12.471Z,98985.38
2019-04-28T08:52:40.938Z,98981.63
2019-04-28T08:55:09.437Z,98989.14
2019-04-28T08:57:37.914Z,98987.05
2019-04-28T09:00:09.395Z,98995.17
2019-04-28T09:02:37.858Z,98989.70
2019-04-28T09:05:06.730Z,98996.33
2019-04-28T09:07:35.207Z,98990.27
2019-04-28T09:10:05.128Z,99009.95
2019-04-28T09:12:33.624Z,99007.16
2019-04-28T09:15:02.097Z,99014.06
2019-04-28T09:17:30.596Z,99007.42
2019-04-28T09:19:59.064Z,99004.73
2019-04-28T09:22:27.564Z,99003.30
2019-04-28T09:24:56.036Z,98998.00
2019-04-28T09:27:24.536Z,98991.19
2019-04-28T09:29:53.002Z,98987.87
2019-04-28T09:32:21.500Z,98990.88
2019-04-28T09:34:49.972Z,98991.88
2019-04-28T09:37:18.470Z,98990.97
2019-04-28T09:39:48.582Z,98986.58
2019-04-28T09:42:30.710Z,98988.27
2019-04-28T09:45:15.071Z,98988.66
2019-04-28T09:47:43.581Z,98989.22
2019-04-28T09:50:12.102Z,98987.79
2019-04-28T09:52:40.676Z,98988.95
2019-04-28T09:55:09.699Z,98992.20
2019-04-28T09:57:38.201Z,98997.58
2019-04-28T10:00:08.496Z,99000.58
2019-04-28T10:02:36.998Z,99002.03
2019-04-28T10:05:09.700Z,98996.59
2019-04-28T10:07:38.203Z,99005.66
2019-04-28T10:10:08.580Z,99011.91
2019-04-28T10:12:37.071Z,99014.34
2019-04-28T10:15:08.324Z,99000.48
2019-04-28T10:17:36.893Z,99008.62
2019-04-28T10:20:06.958Z,99007.73
2019-04-28T10:22:35.439Z,99005.95
2019-04-28T10:25:06.465Z,99012.44
2019-04-28T10:27:34.966Z,99009.79
2019-04-28T10:30:04.686Z,99006.14
2019-04-28T10:32:33.313Z,99018.67
2019-04-28T10:35:01.790Z,99018.84
2019-04-28T10:37:30.291Z,99010.30
2019-04-28T10:40:00.399Z,99013.53
2019-04-28T10:42:28.899Z,99008.70
2019-04-28T10:44:57.450Z,99008.98
2019-04-28T10:47:26.028Z,99006.30
2019-04-28T10:49:54.949Z,99012.59
2019-04-28T10:52:23.451Z,99010.73
2019-04-28T10:54:51.934Z,99017.19
2019-04-28T10:57:20.442Z,99019.14
2019-04-28T10:59:48.922Z,99018.59
2019-04-28T11:02:17.421Z,99017.78
2019-04-28T11:04:47.560Z,99014.72
2019-04-28T11:07:17.208Z,99013.80
2019-04-28T11:09:50.255Z,99012.95
2019-04-28T11:12:20.387Z,99011.77
2019-04-28T11:14:48.888Z,99011.23
2019-04-28T11:17:17.515Z,99003.97
2019-04-28T11:19:46.019Z,98999.97
2019-04-28T11:22:14.764Z,99004.49
2019-04-28T11:24:43.256Z,98998.24
2019-04-28T11:27:12.266Z,99003.19
2019-04-28T11:29:40.771Z,99006.77
2019-04-28T11:32:11.574Z,99004.93
2019-04-28T11:34:41.423Z,99009.68
2019-04-28T11:37:09.969Z,99000.63
2019-04-28T11:39:40.183Z,99002.75
2019-04-28T11:42:08.900Z,99002.57
2019-04-28T11:44:37.395Z,98999.41
2019-04-28T11:47:07.700Z,99004.81
2019-04-28T11:49:36.187Z,99000.58
2019-04-28T11:52:05.290Z,99001.91
2019-04-28T11:54:33.782Z,99004.31
2019-04-28T11:57:02.263Z,99010.05
2019-04-28T11:59:31.213Z,99003.00
2019-04-28T12:01:59.690Z,99011.27
2019-04-28T12:04:28.259Z,99011.63
2019-04-28T12:06:56.734Z,99012.63
2019-04-28T12:09:44.742Z,99010.50
2019-04-28T12:12:23.327Z,99008.55
2019-04-28T12:14:56.148Z,99010.10
2019-04-28T12:17:28.992Z,99005.55
2019-04-28T12:19:59.134Z,99012.20
2019-04-28T12:22:27.630Z,99008.10
2019-04-28T12:24:56.139Z,99000.27
2019-04-28T12:27:24.710Z,99003.65
2019-04-28T12:29:53.284Z,99006.14
2019-04-28T12:32:21.764Z,99002.00
2019-04-28T12:34:50.264Z,99004.79
2019-04-28T12:37:18.737Z,98998.32
2019-04-28T12:39:47.240Z,99007.47
2019-04-28T12:42:15.705Z,99008.43
2019-04-28T12:44:44.203Z,99004.49
2019-04-28T12:47:12.676Z,99009.08
2019-04-28T12:49:45.461Z,98997.55
2019-04-28T12:52:14.088Z,98998.38
2019-04-28T12:54:44.682Z,99004.66
2019-04-28T12:57:12.962Z,98998.58
2019-04-28T12:59:45.977Z,98998.57
2019-04-28T13:02:21.626Z,98988.77
2019-04-28T13:04:57.405Z,98996.05
2019-04-28T13:07:25.910Z,98988.47
2019-04-28T13:09:54.454Z,98992.72
2019-04-28T13:12:23.026Z,98991.19
2019-04-28T13:14:51.496Z,98991.69
2019-04-28T13:17:20.028Z,98999.20
2019-04-28T13:19:48.571Z,98993.56
2019-04-28T13:22:17.073Z,98992.64
2019-04-28T13:24:46.456Z,98994.73
2019-04-28T13:27:15.087Z,98987.02
2019-04-28T13:29:43.559Z,98990.47
2019-04-28T13:32:12.066Z,98991.52
2019-04-28T13:34:41.094Z,98988.72
2019-04-28T13:37:09.795Z,98985.44
2019-04-28T13:39:42.508Z,98994.01
2019-04-28T13:42:10.996Z,98986.91
2019-04-28T13:44:49.890Z,98988.05
2019-04-28T13:47:18.377Z,98984.94
2019-04-28T13:49:51.712Z,98980.03
2019-04-28T13:52:20.261Z,98994.57
2019-04-28T13:54:50.375Z,98982.25
2019-04-28T13:57:18.946Z,98978.80
2019-04-28T13:59:49.060Z,98981.38
2019-04-28T14:02:35.636Z,98977.64
2019-04-28T14:05:10.056Z,98977.31
2019-04-28T14:07:38.544Z,98979.18
2019-04-28T14:10:08.856Z,98979.98
2019-04-28T14:12:37.456Z,98979.75
2019-04-28T14:15:06.534Z,98974.21
2019-04-28T14:17:35.039Z,98976.86
2019-04-28T14:20:04.707Z,98984.19
2019-04-28T14:22:33.189Z,98989.99
2019-04-28T14:25:01.664Z,98979.00
2019-04-28T14:27:30.225Z,98979.23
2019-04-28T14:29:58.719Z,98984.04
2019-04-28T14:32:27.217Z,98986.41
2019-04-28T14:34:55.687Z,98983.05
2019-04-28T14:37:24.232Z,98981.19
2019-04-28T14:39:52.665Z,98979.87
2019-04-28T14:42:21.152Z,98982.11
2019-04-28T14:44:49.685Z,98982.78
2019-04-28T14:47:18.127Z,98984.18
2019-04-28T14:49:46.616Z,98989.13
2019-04-28T14:52:15.087Z,98979.23
2019-04-28T14:54:43.599Z,98983.19
2019-04-28T14:57:12.046Z,98974.38
2019-04-28T14:59:40.663Z,98977.70
2019-04-28T15:02:16.495Z,98983.36
2019-04-28T15:05:02.899Z,98977.09
2019-04-28T15:07:38.524Z,98980.80
2019-04-28T15:10:24.060Z,98978.34
2019-04-28T15:12:52.530Z,98976.38
2019-04-28T15:15:21.123Z,98976.94
2019-04-28T15:17:49.577Z,98979.02
2019-04-28T15:20:18.240Z,98979.22
2019-04-28T15:22:46.697Z,98973.72
2019-04-28T15:25:15.277Z,98972.61
2019-04-28T15:27:43.737Z,98979.75
2019-04-28T15:30:12.472Z,98970.23
2019-04-28T15:32:40.939Z,98980.48
2019-04-28T15:35:09.573Z,98982.31
2019-04-28T15:37:38.045Z,98982.77
2019-04-28T15:40:09.666Z,98988.18
2019-04-28T15:42:38.138Z,98984.55
2019-04-28T15:45:06.987Z,98986.72
2019-04-28T15:47:35.600Z,98984.53
2019-04-28T15:50:06.130Z,98976.66
2019-04-28T15:52:34.597Z,98975.98
2019-04-28T15:55:04.771Z,98976.16
2019-04-28T15:57:33.252Z,98978.17
2019-04-28T16:00:01.825Z,98982.05
2019-04-28T16:02:30.457Z,98977.00
2019-04-28T16:04:58.966Z,98976.26
2019-04-28T16:07:27.451Z,98976.70
2019-04-28T16:09:55.951Z,98977.02
2019-04-28T16:12:24.435Z,98975.57
2019-04-28T16:14:52.939Z,98971.89
2019-04-28T16:17:21.420Z,98973.65
2019-04-28T16:19:49.914Z,98979.13
2019-04-28T16:22:18.397Z,98978.62
2019-04-28T16:24:47.141Z,98976.28
2019-04-28T16:27:15.644Z,98981.69
2019-04-28T16:29:44.119Z,98985.57
2019-04-28T16:32:12.784Z,98985.30
2019-04-28T16:34:41.254Z,98979.64
2019-04-28T16:37:09.754Z,98988.13
2019-04-28T16:39:38.217Z,98984.70
2019-04-28T16:42:06.715Z,98991.16
2019-04-28T16:44:35.186Z,98994.94
2019-04-28T16:47:03.681Z,98992.84
2019-04-28T16:49:32.150Z,98995.55
2019-04-28T16:52:00.653Z,98997.34
2019-04-28T16:54:29.237Z,98994.37
2019-04-28T16:56:59.456Z,98991.69
2019-04-28T16:59:35.758Z,98999.59
2019-04-28T17:02:18.082Z,99010.07
2019-04-28T17:04:46.566Z,99007.11
2019-04-28T17:07:15.064Z,99011.17
2019-04-28T17:09:43.575Z,99017.54
2019-04-28T17:12:12.074Z,99010.86
2019-04-28T17:14:40.540Z,99021.19
2019-04-28T17:17:09.044Z,99015.57
2019-04-28T17:19:37.519Z,99012.94
2019-04-28T17:22:06.260Z,99026.01
2019-04-28T17:24:34.799Z,99021.45
2019-04-28T17:27:03.368Z,99020.17
2019-04-28T17:29:31.848Z,99022.84
2019-04-28T17:32:00.358Z,99026.97
2019-04-28T17:34:28.896Z,99026.62
2019-04-28T17:36:57.402Z,99028.95
2019-04-28T17:39:27.538Z,99037.21
2019-04-28T17:41:56.038Z,99040.72
2019-04-28T17:44:24.584Z,99040.06
2019-04-28T17:46:53.095Z,99046.62
2019-04-28T17:49:23.201Z,99049.42
2019-04-28T17:51:51.709Z,99057.80
2019-04-28T17:54:20.195Z,99061.50
2019-04-28T17:56:48.675Z,99061.02
2019-04-28T17:59:17.170Z,99057.72
2019-04-28T18:01:47.283Z,99059.55
2019-04-28T18:04:20.127Z,99059.97
2019-04-28T18:06:53.047Z,99061.58
2019-04-28T18:09:21.632Z,99058.52
2019-04-28T18:11:50.243Z,99066.34
2019-04-28T18:14:18.738Z,99060.27
2019-04-28T18:17:04.771Z,99060.55
2019-04-28T18:19:33.268Z,99069.20
2019-04-28T18:22:01.744Z,99070.05
2019-04-28T18:24:30.250Z,99071.90
2019-04-28T18:26:58.732Z,99076.51
2019-04-28T18:29:27.221Z,99067.88
2019-04-28T18:32:05.892Z,99072.19
2019-04-28T18:34:51.943Z,99079.39
2019-04-28T18:37:38.611Z,99076.56
2019-04-28T18:40:26.095Z,99079.86
2019-04-28T18:43:12.980Z,99080.56
2019-04-28T18:45:41.662Z,99083.33
2019-04-28T18:48:10.247Z,99083.20
2019-04-28T18:50:38.714Z,99082.29
2019-04-28T18:53:07.610Z,99091.98
2019-04-28T18:55:36.435Z,99084.18
2019-04-28T18:58:05.316Z,99084.06
2019-04-28T19:00:35.728Z,99095.02
2019-04-28T19:03:04.471Z,99099.78
2019-04-28T19:05:34.584Z,99091.21
2019-04-28T19:08:04.724Z,99091.97
2019-04-28T19:10:40.142Z,99098.88
2019-04-28T19:13:15.927Z,99096.57
2019-04-28T19:15:48.828Z,99099.03
2019-04-28T19:18:22.010Z,99101.71
2019-04-28T19:20:50.484Z,99102.50
2019-04-28T19:23:18.981Z,99101.05
2019-04-28T19:25:47.814Z,99103.02
2019-04-28T19:28:16.634Z,99108.33
2019-04-28T19:30:45.813Z,99102.18
2019-04-28T19:33:14.502Z,99104.07
2019-04-28T19:35:42.986Z,99101.08
2019-04-28T19:38:11.456Z,99104.33
2019-04-28T19:40:40.100Z,99108.54
2019-04-28T19:43:08.573Z,99105.06
2019-04-28T19:45:38.706Z,99099.17
2019-04-28T19:48:07.172Z,99103.69
2019-04-28T19:50:35.695Z,99106.73
2019-04-28T19:53:04.240Z,99108.90
2019-04-28T19:55:34.376Z,99102.58
2019-04-28T19:58:19.875Z,99097.38
2019-04-28T20:00:50.088Z,99100.28
2019-04-28T20:03:18.565Z,99098.48
2019-04-28T20:05:47.070Z,99100.56
2019-04-28T20:08:15.549Z,99102.58
2019-04-28T20:10:44.441Z,99105.52
2019-04-28T20:13:12.910Z,99104.45
2019-04-28T20:15:41.415Z,99096.98
2019-04-28T20:18:09.965Z,99097.84
2019-04-28T20:20:38.458Z,99099.27
2019-04-28T20:23:07.024Z,99097.98
2019-04-28T20:25:35.531Z,99102.73
2019-04-28T20:28:04.143Z,99095.50
2019-04-28T20:30:32.645Z,99105.78
2019-04-28T20:33:07.500Z,99095.41
2019-04-28T20:35:33.044Z,99103.06
2019-04-28T20:38:05.824Z,99099.16
2019-04-28T20:40:38.930Z,99098.98
2019-04-28T20:43:09.045Z,99097.74
2019-04-28T20:45:37.542Z,99093.92
2019-04-28T20:48:06.018Z,99092.13
2019-04-28T20:50:34.509Z,99102.54
2019-04-28T20:53:02.980Z,99099.48
2019-04-28T20:55:31.470Z,99097.88
2019-04-28T20:57:59.940Z,99099.41
2019-04-28T21:00:28.430Z,99096.50
2019-04-28T21:02:56.899Z,99100.44
2019-04-28T21:05:25.392Z,99097.73
2019-04-28T21:07:53.856Z,99100.66
2019-04-28T21:10:22.350Z,99101.87
2019-04-28T21:12:50.915Z,99094.41
2019-04-28T21:15:19.409Z,99101.16
2019-04-28T21:17:47.938Z,99094.61
2019-04-28T21:20:16.423Z,99092.09
2019-04-28T21:22:44.969Z,99091.98
2019-04-28T21:25:13.510Z,99090.48
2019-04-28T21:27:42.144Z,99085.73
2019-04-28T21:30:11.364Z,99084.75
2019-04-28T21:32:39.840Z,99080.70
2019-04-28T21:35:08.544Z,99079.91
2019-04-28T21:37:37.036Z,99090.38
2019-04-28T21:40:08.087Z,99090.75
2019-04-28T21:42:54.360Z,99087.31
2019-04-28T21:45:26.967Z,99090.20
2019-04-28T21:47:55.460Z,99094.89
2019-04-28T21:50:23.923Z,99096.59
2019-04-28T21:52:52.411Z,99094.85
2019-04-28T21:55:20.886Z,99085.41
2019-04-28T21:57:49.378Z,99092.23
2019-04-28T22:00:21.993Z,99089.98
2019-04-28T22:02:50.490Z,99088.76
2019-04-28T22:05:29.859Z,99091.09
2019-04-28T22:07:49.171Z,99091.40
2019-04-28T22:10:17.633Z,99087.01
2019-04-28T22:12:46.162Z,99089.13
2019-04-28T22:15:14.703Z,99092.64
2019-04-28T22:17:43.203Z,99092.66
2019-04-28T22:20:11.833Z,99094.81
2019-04-28T22:22:40.322Z,99090.59
2019-04-28T22:25:10.495Z,99085.66
2019-04-28T22:27:41.631Z,99085.86
2019-04-28T22:30:09.732Z,99091.30
2019-04-28T22:32:38.366Z,99076.44
2019-04-28T22:35:07.476Z,99085.89
2019-04-28T22:37:36.040Z,99081.19
2019-04-28T22:40:06.500Z,99084.42
2019-04-28T22:42:34.992Z,99083.12
2019-04-28T22:45:04.339Z,99082.33
2019-04-28T22:47:32.828Z,99084.13
2019-04-28T22:50:01.292Z,99084.42
2019-04-28T22:52:29.786Z,99080.59
2019-04-28T22:54:59.900Z,99080.41
2019-04-28T22:57:38.795Z,99081.22
2019-04-28T23:00:12.277Z,99079.91
2019-04-28T23:02:40.802Z,99080.48
2019-04-28T23:05:09.402Z,99075.04
2019-04-28T23:07:37.894Z,99068.48
2019-04-28T23:10:08.871Z,99075.65
2019-04-28T23:12:37.361Z,99066.30
2019-04-28T23:15:08.268Z,99072.83
2019-04-28T23:17:36.766Z,99072.31
2019-04-28T23:20:08.342Z,99060.05
2019-04-28T23:22:46.641Z,99064.43
2019-04-28T23:25:08.913Z,99061.08
2019-04-28T23:27:37.376Z,99061.38
2019-04-28T23:30:07.813Z,99059.30
2019-04-28T23:32:36.278Z,99057.99
2019-04-28T23:35:05.923Z,99056.80
2019-04-28T23:37:34.390Z,99059.12
2019-04-28T23:40:02.957Z,99060.50
2019-04-28T23:42:36.018Z,99056.33
2019-04-28T23:45:06.453Z,99058.60
2019-04-28T23:47:34.965Z,99058.41
2019-04-28T23:50:05.599Z,99053.44
2019-04-28T23:52:38.405Z,99052.74
2019-04-28T23:55:09.176Z,99048.81
2019-04-28T23:57:37.637Z,99044.24
